Mattituck, NY (11952)

10:00 AM EST on January 19, 2017 (GMT -0500)
M44039 | | Change Station

Elev 0 ft 41.10 °N, 72.70 °W | Updated 22 minutes ago

Mostly Cloudy
Mostly Cloudy
38.0 °F
Feels Like 33 °F
N
7.0
Wind Variable Wind from WNW
Gusts 9.0 mph

Today
High -- | Low -- °F
--% Chance of Precip.
Yesterday
High -- | Low -- °F
Precip. -- in
Pressure 30.06 in
Visibility 10.0 miles
Clouds Clear
Windchill 33 °F
Dew Point Not available.
Humidity Not available.
Rainfall 0.00 in
Snow Depth Not available.
7:10 AM 4:51 PM
Waning Gibbous, 53% visible
METAR KFOK 191453Z 29005KT 10SM CLR 06/02 A3006 RMK AO2 SLP178 T00610017 50005
Pressure 30.06 in
Visibility 10.0 miles
Clouds Clear
Windchill 33 °F
Dew Point Not available.
Humidity Not available.
Rainfall 0.00 in
Snow Depth Not available.
7:10 AM 4:51 PM
Waning Gibbous, 53% visible
METAR KFOK 191453Z 29005KT 10SM CLR 06/02 A3006 RMK AO2 SLP178 T00610017 50005

Get Your Daily Forecast Email!

Thanks for signing up!

Be on the lookout for a verification email in your inbox.

You'll start receiving the daily forecast at 8 AM.

×

10-Day Weather Forecast

Almanac

Astronomy

Jan. 19, 2017 Rise Set
Actual Time
Civil Twilight
Nautical Twilight
Astronomical Twilight
Moon
Length of Visible Light
Length of Day
Tomorrow will be .
, % of the Moon is Illuminated

Today's Extremes

State Highs State Lows

Community

WunderPhotos

Upload Photos

1,962,540 photos uploaded!

WunderBlog® & News

Nearby

Air Quality

  Air Quality AQ Index Pollutant
Not available.

Snow Depth

Station Depth Elevation

Earthquake Activity

City Distance Mag. Time & Date
Minimum magnitude displayed is 2.5.

Coastal Water Temperatures

Place Temperature

Stations

Nearby Weather Stations

Station Location Temp. Windchill Dew Point Humidity Wind Precip. Elev Updated Type
                   

Watches & Warnings

There are currently no watches in effect.